createdAt,value
2018-05-03T00:03:06.951Z,7.05
2018-05-03T00:09:01.915Z,6.6
2018-05-03T00:14:56.912Z,5.5
2018-05-03T00:20:51.922Z,6.83
2018-05-03T00:26:46.987Z,6.71
2018-05-03T00:32:41.931Z,6.16
2018-05-03T00:38:36.945Z,5.72
2018-05-03T00:44:31.905Z,6.7
2018-05-03T00:50:26.957Z,6.3
2018-05-03T00:56:21.946Z,5.49
2018-05-03T01:02:16.953Z,6.42
2018-05-03T01:08:11.936Z,6.63
2018-05-03T01:14:06.946Z,5.92
2018-05-03T01:20:01.985Z,6.33
2018-05-03T01:25:56.992Z,5.19
2018-05-03T01:31:51.948Z,5.54
2018-05-03T01:37:46.952Z,5.35
2018-05-03T01:43:41.991Z,6.43
2018-05-03T01:49:36.977Z,5.81
2018-05-03T01:55:31.960Z,6.01
2018-05-03T02:01:27.013Z,5.04
2018-05-03T02:07:21.973Z,5.7
2018-05-03T02:13:16.966Z,5.4
2018-05-03T02:19:11.979Z,4.9
2018-05-03T02:25:06.971Z,4.99
2018-05-03T02:31:02.016Z,6.52
2018-05-03T02:36:56.990Z,7.05
2018-05-03T02:42:52.007Z,7.11
2018-05-03T02:48:47.013Z,5.19
2018-05-03T02:54:41.997Z,5.99
2018-05-03T03:00:37.038Z,6.77
2018-05-03T03:06:32.012Z,7.07
2018-05-03T03:12:26.982Z,6.88
2018-05-03T03:18:22.057Z,5.66
2018-05-03T03:24:17.038Z,4.69
2018-05-03T03:30:12.028Z,7.32
2018-05-03T03:36:07.012Z,5.54
2018-05-03T03:42:02.006Z,5.66
2018-05-03T03:47:57.021Z,6.6
2018-05-03T03:53:52.052Z,6.03
2018-05-03T03:59:47.055Z,6.3
2018-05-03T04:05:42.030Z,6.38
2018-05-03T04:11:37.018Z,5.33
2018-05-03T04:17:32.026Z,5.92
2018-05-03T04:23:27.043Z,6.75
2018-05-03T04:29:22.063Z,5.74
2018-05-03T04:35:17.101Z,6.27
2018-05-03T04:41:12.063Z,5.64
2018-05-03T04:47:07.054Z,4.2
2018-05-03T04:53:02.096Z,4.9
2018-05-03T04:58:57.075Z,5.79
2018-05-03T05:04:52.114Z,4.14
2018-05-03T05:10:47.094Z,3.4
2018-05-03T05:16:42.093Z,4.87
2018-05-03T05:22:37.096Z,6.17
2018-05-03T05:28:32.100Z,6.32
2018-05-03T05:34:27.071Z,8.51
2018-05-03T05:40:22.088Z,8.58
2018-05-03T05:46:17.069Z,8.41
2018-05-03T05:52:12.132Z,8.31
2018-05-03T05:58:07.098Z,6.12
2018-05-03T06:04:02.097Z,7.6
2018-05-03T06:09:57.095Z,7.8
2018-05-03T06:15:52.104Z,6.14
2018-05-03T06:21:47.147Z,6.7
2018-05-03T06:27:42.127Z,8.37
2018-05-03T06:33:37.134Z,5.74
2018-05-03T06:39:32.143Z,6.52
2018-05-03T06:45:27.106Z,6.16
2018-05-03T06:51:22.090Z,6.88
2018-05-03T06:57:17.107Z,5.04
2018-05-03T07:03:12.108Z,5.13
2018-05-03T07:09:07.117Z,5.66
2018-05-03T07:15:02.177Z,4.58
2018-05-03T07:20:57.158Z,5.17
2018-05-03T07:26:52.143Z,3.18
2018-05-03T07:32:47.184Z,3.53
2018-05-03T07:38:42.178Z,4.22
2018-05-03T07:44:37.138Z,4.44
2018-05-03T07:50:32.204Z,4.62
2018-05-03T07:56:27.178Z,3.69
2018-05-03T08:02:22.153Z,3.64
2018-05-03T08:08:17.152Z,3.18
2018-05-03T08:14:12.173Z,6.2
2018-05-03T08:20:07.147Z,4.84
2018-05-03T08:26:02.166Z,3.68
2018-05-03T08:31:57.194Z,4.33
2018-05-03T08:37:52.229Z,4.7
2018-05-03T08:43:47.214Z,4.18
2018-05-03T08:49:42.182Z,4.6
2018-05-03T08:55:37.222Z,6.05
2018-05-03T09:01:32.224Z,3.97
2018-05-03T09:07:27.191Z,6.32
2018-05-03T09:13:22.194Z,3.66
2018-05-03T09:19:17.184Z,4.7
2018-05-03T09:25:12.303Z,4.19
2018-05-03T09:31:07.217Z,4.49
2018-05-03T09:37:02.213Z,4.02
2018-05-03T09:42:57.273Z,4.51
2018-05-03T09:48:52.284Z,4.66
2018-05-03T09:54:47.228Z,4.1
2018-05-03T10:00:42.639Z,5.21
2018-05-03T10:06:37.247Z,5.04
2018-05-03T10:12:32.253Z,5.39
2018-05-03T10:18:27.231Z,4.97
2018-05-03T10:24:22.248Z,4.6
2018-05-03T10:30:17.318Z,4.62
2018-05-03T10:36:12.421Z,4.16
2018-05-03T10:42:07.468Z,4.3
2018-05-03T10:48:02.250Z,3.74
2018-05-03T10:53:57.273Z,3.93
2018-05-03T10:59:52.280Z,3.62
2018-05-03T11:05:47.270Z,3.64
2018-05-03T11:11:42.285Z,4.25
2018-05-03T11:17:37.308Z,4.14
2018-05-03T11:23:32.299Z,4.16
2018-05-03T11:29:27.258Z,4.67
2018-05-03T11:35:22.316Z,4.77
2018-05-03T11:41:17.254Z,5.01
2018-05-03T11:47:12.308Z,4.39
2018-05-03T11:53:07.279Z,4.94
2018-05-03T11:59:02.271Z,6.31
2018-05-03T12:04:57.282Z,5.39
2018-05-03T12:10:52.280Z,5.32
2018-05-03T12:16:47.285Z,6.81
2018-05-03T12:22:42.314Z,6.01
2018-05-03T12:28:37.344Z,6.02
2018-05-03T12:34:32.285Z,5.77
2018-05-03T12:40:27.304Z,6.35
2018-05-03T12:46:22.339Z,6.4
2018-05-03T12:52:17.297Z,6.48
2018-05-03T12:58:12.327Z,6.22
2018-05-03T13:04:07.332Z,6.65
2018-05-03T13:10:02.358Z,6.81
2018-05-03T13:15:57.313Z,6.6
2018-05-03T13:21:52.316Z,6.76
2018-05-03T13:27:47.339Z,6.53
2018-05-03T13:33:42.368Z,6.91
2018-05-03T13:39:37.373Z,7.07
2018-05-03T13:45:32.320Z,7.24
2018-05-03T13:51:27.375Z,6.91
2018-05-03T13:57:22.364Z,6.85
2018-05-03T14:03:17.384Z,8.01
2018-05-03T14:09:12.357Z,7.94
2018-05-03T14:15:07.360Z,6.27
2018-05-03T14:21:02.463Z,7.13
2018-05-03T14:26:57.370Z,7.87
2018-05-03T14:32:52.352Z,8.07
2018-05-03T14:38:47.380Z,8.21
2018-05-03T14:44:42.439Z,7.65
2018-05-03T14:50:37.367Z,6.73
2018-05-03T14:56:32.398Z,5.68
2018-05-03T15:02:27.381Z,4.75
2018-05-03T15:08:22.358Z,6.44
2018-05-03T15:14:17.421Z,6.98
2018-05-03T15:20:12.427Z,6.69
2018-05-03T15:26:07.407Z,6.96
2018-05-03T15:32:02.415Z,7.03
2018-05-03T15:37:57.415Z,7.88
2018-05-03T15:43:52.420Z,5.9
2018-05-03T15:43:52.429Z,5.9
2018-05-03T15:49:47.403Z,9.06
2018-05-03T15:49:47.419Z,9.06
2018-05-03T15:55:42.476Z,6.33
2018-05-03T15:55:42.488Z,6.33
2018-05-03T16:01:37.496Z,6.51
2018-05-03T16:01:37.496Z,6.51
2018-05-03T16:07:32.417Z,6.58
2018-05-03T16:07:32.526Z,6.58
2018-05-03T16:13:27.444Z,4.46
2018-05-03T16:13:27.466Z,4.46
2018-05-03T16:19:22.413Z,3.89
2018-05-03T16:19:22.434Z,3.89
2018-05-03T16:25:17.420Z,4.47
2018-05-03T16:25:17.463Z,4.47
2018-05-03T16:31:12.412Z,4.74
2018-05-03T16:31:12.427Z,4.74
2018-05-03T16:37:07.410Z,2.99
2018-05-03T16:37:07.423Z,2.99
2018-05-03T16:43:02.433Z,3.99
2018-05-03T16:43:02.442Z,3.99
2018-05-03T16:48:57.449Z,3.21
2018-05-03T16:48:57.473Z,3.21
2018-05-03T16:54:52.481Z,2.88
2018-05-03T16:54:52.513Z,2.88
2018-05-03T17:00:47.455Z,5.71
2018-05-03T17:00:47.479Z,5.71
2018-05-03T17:06:42.442Z,4.48
2018-05-03T17:06:42.455Z,4.48
2018-05-03T17:12:37.444Z,3.91
2018-05-03T17:12:37.450Z,3.91
2018-05-03T17:18:32.479Z,5.28
2018-05-03T17:18:32.485Z,5.28
2018-05-03T17:24:27.471Z,4.63
2018-05-03T17:24:27.506Z,4.63
2018-05-03T17:30:22.459Z,5.09
2018-05-03T17:30:22.468Z,5.09
2018-05-03T17:36:17.459Z,3.03
2018-05-03T17:36:17.471Z,3.03
2018-05-03T17:42:12.437Z,4.08
2018-05-03T17:42:12.479Z,4.08
2018-05-03T17:48:07.505Z,4.62
2018-05-03T17:48:07.513Z,4.62
2018-05-03T17:54:02.453Z,3.84
2018-05-03T17:54:02.461Z,3.84
2018-05-03T17:59:57.499Z,5
2018-05-03T17:59:57.540Z,5
2018-05-03T18:05:52.478Z,3.83
2018-05-03T18:05:52.502Z,3.83
2018-05-03T18:11:47.511Z,10.63
2018-05-03T18:11:47.528Z,10.63
2018-05-03T18:17:42.468Z,5
2018-05-03T18:17:42.490Z,5
2018-05-03T18:23:37.500Z,3.58
2018-05-03T18:23:37.511Z,3.58
2018-05-03T18:29:32.496Z,4.22
2018-05-03T18:29:32.496Z,4.22
2018-05-03T18:35:27.527Z,4.52
2018-05-03T18:35:27.533Z,4.52
2018-05-03T18:41:22.503Z,4.3
2018-05-03T18:41:22.520Z,4.3
2018-05-03T18:47:17.541Z,4.26
2018-05-03T18:47:17.571Z,4.26
2018-05-03T18:53:12.481Z,21.1
2018-05-03T18:53:12.495Z,21.1
2018-05-03T18:59:07.503Z,18.43
2018-05-03T18:59:07.527Z,18.43
2018-05-03T19:05:02.527Z,10.64
2018-05-03T19:05:02.534Z,10.64
2018-05-03T19:10:57.504Z,18.02
2018-05-03T19:10:57.524Z,18.02
2018-05-03T19:16:52.521Z,11.98
2018-05-03T19:16:52.540Z,11.98
2018-05-03T19:22:47.500Z,10.92
2018-05-03T19:22:47.503Z,10.92
2018-05-03T19:28:42.516Z,22.22
2018-05-03T19:28:42.535Z,22.22
2018-05-03T19:34:37.511Z,14.11
2018-05-03T19:34:37.518Z,14.11
2018-05-03T19:40:32.537Z,9.41
2018-05-03T19:40:32.583Z,9.41
2018-05-03T19:46:27.531Z,11.22
2018-05-03T19:46:27.542Z,11.22
2018-05-03T19:52:22.521Z,14.73
2018-05-03T19:52:22.598Z,14.73
2018-05-03T19:58:17.535Z,15.38
2018-05-03T19:58:17.551Z,15.38
2018-05-03T20:04:12.570Z,9.56
2018-05-03T20:04:12.613Z,9.56
2018-05-03T20:10:07.571Z,11.71
2018-05-03T20:10:07.575Z,11.71
2018-05-03T20:16:02.557Z,15.87
2018-05-03T20:16:02.563Z,15.87
2018-05-03T20:21:57.575Z,9.14
2018-05-03T20:21:57.581Z,9.14
2018-05-03T20:27:52.578Z,15.33
2018-05-03T20:27:52.599Z,15.33
2018-05-03T20:33:47.641Z,16.87
2018-05-03T20:33:47.641Z,16.87
2018-05-03T20:39:42.617Z,17.47
2018-05-03T20:39:42.617Z,17.47
2018-05-03T20:45:37.582Z,12
2018-05-03T20:45:37.597Z,12
2018-05-03T20:51:32.559Z,11.68
2018-05-03T20:51:32.567Z,11.68
2018-05-03T20:57:27.579Z,7.71
2018-05-03T20:57:27.582Z,7.71
2018-05-03T21:03:22.547Z,18.64
2018-05-03T21:03:22.581Z,18.64
2018-05-03T21:09:17.580Z,9.24
2018-05-03T21:09:17.599Z,9.24
2018-05-03T21:15:12.582Z,6.3
2018-05-03T21:15:12.602Z,6.3
2018-05-03T21:21:07.608Z,7.18
2018-05-03T21:21:07.618Z,7.18
2018-05-03T21:27:02.579Z,8.3
2018-05-03T21:27:02.593Z,8.3
2018-05-03T21:32:57.634Z,8.2
2018-05-03T21:32:57.836Z,8.2
2018-05-03T21:38:52.565Z,9.06
2018-05-03T21:38:52.579Z,9.06
2018-05-03T21:44:47.594Z,8.64
2018-05-03T21:44:47.612Z,8.64
2018-05-03T21:50:42.596Z,6.04
2018-05-03T21:50:42.599Z,6.04
2018-05-03T21:56:37.625Z,5.91
2018-05-03T21:56:37.632Z,5.91
2018-05-03T22:02:32.617Z,8.27
2018-05-03T22:08:27.576Z,6.73
2018-05-03T22:14:22.643Z,9.23
2018-05-03T22:20:17.608Z,6.96
2018-05-03T22:26:12.648Z,4.27
2018-05-03T22:32:07.593Z,7.67
2018-05-03T22:38:02.667Z,5.89
2018-05-03T22:43:57.620Z,5.26
2018-05-03T22:49:52.649Z,7.92
2018-05-03T22:55:47.644Z,8.2
2018-05-03T23:01:42.660Z,5.09
2018-05-03T23:07:37.659Z,4.09
2018-05-03T23:13:32.615Z,2.93
2018-05-03T23:19:27.629Z,4.61
2018-05-03T23:25:22.643Z,2.83
2018-05-03T23:31:17.660Z,2.75
2018-05-03T23:37:12.630Z,7.03
2018-05-03T23:43:07.623Z,4.16
2018-05-03T23:49:02.630Z,7.39
2018-05-03T23:54:57.678Z,3.47
